sensor_id;sensor_type;location;lat;lon;timestamp;P1;durP1;ratioP1;P2;durP2;ratioP2
66707;SDS011;53622;0.000;0.000;2023-07-29T00:00:29;7.10;;;5.03;;
66707;SDS011;53622;0.000;0.000;2023-07-29T00:02:58;5.63;;;5.13;;
66707;SDS011;53622;0.000;0.000;2023-07-29T00:05:28;5.32;;;4.82;;
66707;SDS011;53622;0.000;0.000;2023-07-29T00:07:57;5.45;;;4.95;;
66707;SDS011;53622;0.000;0.000;2023-07-29T00:10:26;6.38;;;5.53;;
66707;SDS011;53622;0.000;0.000;2023-07-29T00:12:57;5.88;;;5.20;;
66707;SDS011;53622;0.000;0.000;2023-07-29T00:15:26;5.60;;;5.07;;
66707;SDS011;53622;0.000;0.000;2023-07-29T00:17:56;6.50;;;4.88;;
66707;SDS011;53622;0.000;0.000;2023-07-29T00:20:25;6.07;;;5.20;;
66707;SDS011;53622;0.000;0.000;2023-07-29T00:22:54;5.57;;;5.07;;
66707;SDS011;53622;0.000;0.000;2023-07-29T00:25:25;6.13;;;4.90;;
66707;SDS011;53622;0.000;0.000;2023-07-29T00:27:55;9.05;;;5.28;;
66707;SDS011;53622;0.000;0.000;2023-07-29T00:30:27;5.60;;;4.80;;
66707;SDS011;53622;0.000;0.000;2023-07-29T00:32:56;6.35;;;4.88;;
66707;SDS011;53622;0.000;0.000;2023-07-29T00:35:25;6.78;;;4.97;;
66707;SDS011;53622;0.000;0.000;2023-07-29T00:37:55;7.75;;;5.00;;
66707;SDS011;53622;0.000;0.000;2023-07-29T00:40:27;5.03;;;4.53;;
66707;SDS011;53622;0.000;0.000;2023-07-29T00:42:58;6.47;;;4.88;;
66707;SDS011;53622;0.000;0.000;2023-07-29T00:45:28;5.47;;;4.90;;
66707;SDS011;53622;0.000;0.000;2023-07-29T00:47:58;5.75;;;4.22;;
66707;SDS011;53622;0.000;0.000;2023-07-29T00:50:29;6.38;;;4.70;;
66707;SDS011;53622;0.000;0.000;2023-07-29T00:53:00;5.88;;;4.32;;
66707;SDS011;53622;0.000;0.000;2023-07-29T00:55:29;4.93;;;4.38;;
66707;SDS011;53622;0.000;0.000;2023-07-29T00:58:00;4.95;;;4.22;;
66707;SDS011;53622;0.000;0.000;2023-07-29T01:00:29;4.93;;;4.53;;
66707;SDS011;53622;0.000;0.000;2023-07-29T01:02:58;4.35;;;3.95;;
66707;SDS011;53622;0.000;0.000;2023-07-29T01:05:30;5.93;;;4.30;;
66707;SDS011;53622;0.000;0.000;2023-07-29T01:08:06;4.70;;;4.03;;
66707;SDS011;53622;0.000;0.000;2023-07-29T01:10:44;6.32;;;3.95;;
66707;SDS011;53622;0.000;0.000;2023-07-29T01:13:23;5.10;;;4.13;;
66707;SDS011;53622;0.000;0.000;2023-07-29T01:16:00;6.53;;;4.03;;
66707;SDS011;53622;0.000;0.000;2023-07-29T01:18:34;4.43;;;4.03;;
66707;SDS011;53622;0.000;0.000;2023-07-29T01:21:07;4.53;;;4.10;;
66707;SDS011;53622;0.000;0.000;2023-07-29T01:23:39;4.97;;;4.10;;
66707;SDS011;53622;0.000;0.000;2023-07-29T01:26:08;5.53;;;4.18;;
66707;SDS011;53622;0.000;0.000;2023-07-29T01:28:37;4.57;;;4.18;;
66707;SDS011;53622;0.000;0.000;2023-07-29T01:31:09;6.05;;;4.53;;
66707;SDS011;53622;0.000;0.000;2023-07-29T01:33:42;4.30;;;3.90;;
66707;SDS011;53622;0.000;0.000;2023-07-29T01:36:15;4.35;;;3.95;;
66707;SDS011;53622;0.000;0.000;2023-07-29T01:38:52;4.63;;;4.22;;
66707;SDS011;53622;0.000;0.000;2023-07-29T01:41:24;4.78;;;3.67;;
66707;SDS011;53622;0.000;0.000;2023-07-29T01:43:55;4.97;;;3.47;;
66707;SDS011;53622;0.000;0.000;2023-07-29T01:46:26;5.05;;;3.63;;
66707;SDS011;53622;0.000;0.000;2023-07-29T01:48:55;4.38;;;3.92;;
66707;SDS011;53622;0.000;0.000;2023-07-29T01:51:24;4.45;;;3.78;;
66707;SDS011;53622;0.000;0.000;2023-07-29T01:53:55;4.68;;;3.22;;
66707;SDS011;53622;0.000;0.000;2023-07-29T01:56:26;4.28;;;3.88;;
66707;SDS011;53622;0.000;0.000;2023-07-29T01:58:56;4.40;;;3.72;;
66707;SDS011;53622;0.000;0.000;2023-07-29T02:01:27;4.20;;;3.40;;
66707;SDS011;53622;0.000;0.000;2023-07-29T02:03:58;5.13;;;3.92;;
66707;SDS011;53622;0.000;0.000;2023-07-29T02:06:28;4.07;;;3.60;;
66707;SDS011;53622;0.000;0.000;2023-07-29T02:08:58;4.70;;;3.53;;
66707;SDS011;53622;0.000;0.000;2023-07-29T02:11:28;6.05;;;3.60;;
66707;SDS011;53622;0.000;0.000;2023-07-29T02:13:57;4.13;;;3.63;;
66707;SDS011;53622;0.000;0.000;2023-07-29T02:16:26;3.78;;;3.47;;
66707;SDS011;53622;0.000;0.000;2023-07-29T02:18:56;3.42;;;3.13;;
66707;SDS011;53622;0.000;0.000;2023-07-29T02:21:26;4.20;;;3.80;;
66707;SDS011;53622;0.000;0.000;2023-07-29T02:23:55;4.00;;;3.60;;
66707;SDS011;53622;0.000;0.000;2023-07-29T02:26:25;4.30;;;3.65;;
66707;SDS011;53622;0.000;0.000;2023-07-29T02:28:55;5.70;;;3.92;;
66707;SDS011;53622;0.000;0.000;2023-07-29T02:31:24;4.50;;;3.72;;
66707;SDS011;53622;0.000;0.000;2023-07-29T02:33:54;4.30;;;3.90;;
66707;SDS011;53622;0.000;0.000;2023-07-29T02:36:23;5.75;;;4.10;;
66707;SDS011;53622;0.000;0.000;2023-07-29T02:38:53;6.10;;;4.07;;
66707;SDS011;53622;0.000;0.000;2023-07-29T02:41:22;5.57;;;4.05;;
66707;SDS011;53622;0.000;0.000;2023-07-29T02:43:53;5.85;;;4.05;;
66707;SDS011;53622;0.000;0.000;2023-07-29T02:46:22;4.35;;;3.70;;
66707;SDS011;53622;0.000;0.000;2023-07-29T02:48:52;6.68;;;3.75;;
66707;SDS011;53622;0.000;0.000;2023-07-29T02:51:21;4.15;;;3.75;;
66707;SDS011;53622;0.000;0.000;2023-07-29T02:53:50;6.13;;;3.88;;
66707;SDS011;53622;0.000;0.000;2023-07-29T02:56:20;4.25;;;3.80;;
66707;SDS011;53622;0.000;0.000;2023-07-29T02:58:49;5.25;;;3.83;;
66707;SDS011;53622;0.000;0.000;2023-07-29T03:01:22;3.67;;;3.30;;
66707;SDS011;53622;0.000;0.000;2023-07-29T03:03:53;4.30;;;3.88;;
66707;SDS011;53622;0.000;0.000;2023-07-29T03:06:23;4.38;;;3.97;;
66707;SDS011;53622;0.000;0.000;2023-07-29T03:08:52;3.97;;;3.58;;
66707;SDS011;53622;0.000;0.000;2023-07-29T03:11:21;3.90;;;3.60;;
66707;SDS011;53622;0.000;0.000;2023-07-29T03:13:51;6.00;;;3.55;;
66707;SDS011;53622;0.000;0.000;2023-07-29T03:16:22;3.55;;;3.10;;
66707;SDS011;53622;0.000;0.000;2023-07-29T03:18:54;5.25;;;3.75;;
66707;SDS011;53622;0.000;0.000;2023-07-29T03:21:24;6.38;;;3.60;;
66707;SDS011;53622;0.000;0.000;2023-07-29T03:23:54;5.68;;;3.35;;
66707;SDS011;53622;0.000;0.000;2023-07-29T03:26:23;3.92;;;3.55;;
66707;SDS011;53622;0.000;0.000;2023-07-29T03:28:52;6.20;;;3.95;;
66707;SDS011;53622;0.000;0.000;2023-07-29T03:31:23;5.85;;;3.70;;
66707;SDS011;53622;0.000;0.000;2023-07-29T03:33:53;4.00;;;3.60;;
66707;SDS011;53622;0.000;0.000;2023-07-29T03:36:22;6.40;;;3.78;;
66707;SDS011;53622;0.000;0.000;2023-07-29T03:38:52;4.13;;;3.40;;
66707;SDS011;53622;0.000;0.000;2023-07-29T03:41:22;4.18;;;3.35;;
66707;SDS011;53622;0.000;0.000;2023-07-29T03:43:51;3.90;;;3.50;;
66707;SDS011;53622;0.000;0.000;2023-07-29T03:46:20;4.07;;;3.33;;
66707;SDS011;53622;0.000;0.000;2023-07-29T03:48:52;4.05;;;3.75;;
66707;SDS011;53622;0.000;0.000;2023-07-29T03:51:21;4.18;;;3.58;;
66707;SDS011;53622;0.000;0.000;2023-07-29T03:53:51;4.63;;;4.22;;
66707;SDS011;53622;0.000;0.000;2023-07-29T03:56:21;5.03;;;4.03;;
66707;SDS011;53622;0.000;0.000;2023-07-29T03:58:50;3.95;;;3.45;;
66707;SDS011;53622;0.000;0.000;2023-07-29T04:01:20;4.25;;;3.85;;
66707;SDS011;53622;0.000;0.000;2023-07-29T04:03:49;4.40;;;3.63;;
66707;SDS011;53622;0.000;0.000;2023-07-29T04:06:22;5.10;;;3.92;;
66707;SDS011;53622;0.000;0.000;2023-07-29T04:08:52;4.35;;;3.60;;
66707;SDS011;53622;0.000;0.000;2023-07-29T04:11:21;4.13;;;3.72;;
66707;SDS011;53622;0.000;0.000;2023-07-29T04:13:51;4.97;;;4.57;;
66707;SDS011;53622;0.000;0.000;2023-07-29T04:16:20;5.57;;;3.78;;
66707;SDS011;53622;0.000;0.000;2023-07-29T04:18:49;6.53;;;3.97;;
66707;SDS011;53622;0.000;0.000;2023-07-29T04:21:20;4.30;;;3.90;;
66707;SDS011;53622;0.000;0.000;2023-07-29T04:23:50;4.80;;;4.10;;
66707;SDS011;53622;0.000;0.000;2023-07-29T04:26:19;4.10;;;3.67;;
66707;SDS011;53622;0.000;0.000;2023-07-29T04:28:48;5.95;;;3.63;;
66707;SDS011;53622;0.000;0.000;2023-07-29T04:31:17;3.88;;;3.58;;
66707;SDS011;53622;0.000;0.000;2023-07-29T04:33:47;3.80;;;3.50;;
66707;SDS011;53622;0.000;0.000;2023-07-29T04:36:18;4.25;;;3.75;;
66707;SDS011;53622;0.000;0.000;2023-07-29T04:38:47;4.22;;;3.83;;
66707;SDS011;53622;0.000;0.000;2023-07-29T04:41:17;4.60;;;3.88;;
66707;SDS011;53622;0.000;0.000;2023-07-29T04:43:46;6.82;;;4.13;;
66707;SDS011;53622;0.000;0.000;2023-07-29T04:46:16;5.53;;;3.58;;
66707;SDS011;53622;0.000;0.000;2023-07-29T04:48:46;6.47;;;3.67;;
66707;SDS011;53622;0.000;0.000;2023-07-29T04:51:15;5.57;;;4.20;;
66707;SDS011;53622;0.000;0.000;2023-07-29T04:53:46;5.32;;;3.78;;
66707;SDS011;53622;0.000;0.000;2023-07-29T04:56:15;7.70;;;4.15;;
66707;SDS011;53622;0.000;0.000;2023-07-29T04:58:45;5.03;;;4.20;;
66707;SDS011;53622;0.000;0.000;2023-07-29T05:01:14;4.57;;;4.10;;
66707;SDS011;53622;0.000;0.000;2023-07-29T05:03:44;6.60;;;3.63;;
66707;SDS011;53622;0.000;0.000;2023-07-29T05:06:13;5.25;;;3.95;;
66707;SDS011;53622;0.000;0.000;2023-07-29T05:08:44;4.38;;;3.90;;
66707;SDS011;53622;0.000;0.000;2023-07-29T05:11:13;4.80;;;4.30;;
66707;SDS011;53622;0.000;0.000;2023-07-29T05:13:43;5.55;;;4.00;;
66707;SDS011;53622;0.000;0.000;2023-07-29T05:16:12;4.55;;;4.00;;
66707;SDS011;53622;0.000;0.000;2023-07-29T05:18:42;4.60;;;4.18;;
66707;SDS011;53622;0.000;0.000;2023-07-29T05:21:11;5.70;;;4.50;;
66707;SDS011;53622;0.000;0.000;2023-07-29T05:23:42;4.60;;;4.05;;
66707;SDS011;53622;0.000;0.000;2023-07-29T05:26:14;4.32;;;3.70;;
66707;SDS011;53622;0.000;0.000;2023-07-29T05:28:44;4.47;;;4.07;;
66707;SDS011;53622;0.000;0.000;2023-07-29T05:31:13;4.68;;;3.80;;
66707;SDS011;53622;0.000;0.000;2023-07-29T05:33:43;5.60;;;3.90;;
66707;SDS011;53622;0.000;0.000;2023-07-29T05:36:13;4.60;;;3.97;;
66707;SDS011;53622;0.000;0.000;2023-07-29T05:38:44;6.18;;;4.03;;
66707;SDS011;53622;0.000;0.000;2023-07-29T05:41:15;4.10;;;3.70;;
66707;SDS011;53622;0.000;0.000;2023-07-29T05:43:44;5.63;;;3.75;;
66707;SDS011;53622;0.000;0.000;2023-07-29T05:46:14;5.97;;;4.03;;
66707;SDS011;53622;0.000;0.000;2023-07-29T05:48:43;5.43;;;3.88;;
66707;SDS011;53622;0.000;0.000;2023-07-29T05:51:13;6.03;;;3.83;;
66707;SDS011;53622;0.000;0.000;2023-07-29T05:53:42;6.68;;;3.95;;
66707;SDS011;53622;0.000;0.000;2023-07-29T05:56:11;5.50;;;3.95;;
66707;SDS011;53622;0.000;0.000;2023-07-29T05:58:42;5.15;;;3.97;;
66707;SDS011;53622;0.000;0.000;2023-07-29T06:01:12;5.45;;;4.30;;
66707;SDS011;53622;0.000;0.000;2023-07-29T06:03:42;4.60;;;4.10;;
66707;SDS011;53622;0.000;0.000;2023-07-29T06:06:12;5.32;;;4.10;;
66707;SDS011;53622;0.000;0.000;2023-07-29T06:08:42;5.00;;;3.70;;
66707;SDS011;53622;0.000;0.000;2023-07-29T06:11:12;5.07;;;4.10;;
66707;SDS011;53622;0.000;0.000;2023-07-29T06:13:43;6.30;;;3.83;;
66707;SDS011;53622;0.000;0.000;2023-07-29T06:16:14;4.10;;;3.80;;
66707;SDS011;53622;0.000;0.000;2023-07-29T06:18:45;6.13;;;4.25;;
66707;SDS011;53622;0.000;0.000;2023-07-29T06:21:14;5.10;;;4.25;;
66707;SDS011;53622;0.000;0.000;2023-07-29T06:23:44;4.63;;;4.18;;
66707;SDS011;53622;0.000;0.000;2023-07-29T06:26:14;5.43;;;4.38;;
66707;SDS011;53622;0.000;0.000;2023-07-29T06:28:45;6.38;;;4.43;;
66707;SDS011;53622;0.000;0.000;2023-07-29T06:31:14;5.53;;;4.00;;
66707;SDS011;53622;0.000;0.000;2023-07-29T06:33:44;5.43;;;3.90;;
66707;SDS011;53622;0.000;0.000;2023-07-29T06:36:13;4.72;;;4.15;;
66707;SDS011;53622;0.000;0.000;2023-07-29T06:38:42;6.78;;;4.32;;
66707;SDS011;53622;0.000;0.000;2023-07-29T06:41:12;5.88;;;3.95;;
66707;SDS011;53622;0.000;0.000;2023-07-29T06:43:45;4.00;;;3.60;;
66707;SDS011;53622;0.000;0.000;2023-07-29T06:46:15;4.88;;;4.00;;
66707;SDS011;53622;0.000;0.000;2023-07-29T06:48:45;5.97;;;3.92;;
66707;SDS011;53622;0.000;0.000;2023-07-29T06:51:14;6.22;;;4.20;;
66707;SDS011;53622;0.000;0.000;2023-07-29T06:53:44;6.10;;;4.15;;
66707;SDS011;53622;0.000;0.000;2023-07-29T06:56:13;5.60;;;4.30;;
66707;SDS011;53622;0.000;0.000;2023-07-29T06:58:43;7.55;;;4.07;;
66707;SDS011;53622;0.000;0.000;2023-07-29T07:01:14;10.65;;;4.28;;
66707;SDS011;53622;0.000;0.000;2023-07-29T07:03:43;6.15;;;4.32;;
66707;SDS011;53622;0.000;0.000;2023-07-29T07:06:13;6.75;;;4.43;;
66707;SDS011;53622;0.000;0.000;2023-07-29T07:08:42;4.82;;;3.92;;
66707;SDS011;53622;0.000;0.000;2023-07-29T07:11:11;4.88;;;4.22;;
66707;SDS011;53622;0.000;0.000;2023-07-29T07:13:40;6.10;;;4.28;;
66707;SDS011;53622;0.000;0.000;2023-07-29T07:16:10;6.25;;;4.03;;
66707;SDS011;53622;0.000;0.000;2023-07-29T07:18:40;4.70;;;3.92;;
66707;SDS011;53622;0.000;0.000;2023-07-29T07:21:10;4.82;;;3.60;;
66707;SDS011;53622;0.000;0.000;2023-07-29T07:23:39;5.35;;;3.60;;
66707;SDS011;53622;0.000;0.000;2023-07-29T07:26:09;5.75;;;4.03;;
66707;SDS011;53622;0.000;0.000;2023-07-29T07:28:38;4.22;;;3.92;;
66707;SDS011;53622;0.000;0.000;2023-07-29T07:31:07;5.20;;;3.97;;
66707;SDS011;53622;0.000;0.000;2023-07-29T07:33:36;4.40;;;3.95;;
66707;SDS011;53622;0.000;0.000;2023-07-29T07:36:07;6.25;;;4.40;;
66707;SDS011;53622;0.000;0.000;2023-07-29T07:38:37;4.25;;;3.85;;
66707;SDS011;53622;0.000;0.000;2023-07-29T07:41:06;7.25;;;4.35;;
66707;SDS011;53622;0.000;0.000;2023-07-29T07:43:35;9.23;;;4.80;;
66707;SDS011;53622;0.000;0.000;2023-07-29T07:46:06;7.35;;;4.35;;
66707;SDS011;53622;0.000;0.000;2023-07-29T07:48:35;4.68;;;4.07;;
66707;SDS011;53622;0.000;0.000;2023-07-29T07:51:16;8.00;;;4.30;;
66707;SDS011;53622;0.000;0.000;2023-07-29T07:53:45;6.95;;;4.13;;
66707;SDS011;53622;0.000;0.000;2023-07-29T07:56:15;5.18;;;4.00;;
66707;SDS011;53622;0.000;0.000;2023-07-29T07:58:44;9.00;;;3.97;;
66707;SDS011;53622;0.000;0.000;2023-07-29T08:01:14;7.10;;;4.05;;
66707;SDS011;53622;0.000;0.000;2023-07-29T08:03:43;5.47;;;4.20;;
66707;SDS011;53622;0.000;0.000;2023-07-29T08:06:12;5.57;;;3.97;;
66707;SDS011;53622;0.000;0.000;2023-07-29T08:08:43;6.68;;;4.25;;
66707;SDS011;53622;0.000;0.000;2023-07-29T08:11:12;5.68;;;3.92;;
66707;SDS011;53622;0.000;0.000;2023-07-29T08:13:42;6.75;;;4.13;;
66707;SDS011;53622;0.000;0.000;2023-07-29T08:16:12;8.20;;;4.05;;
66707;SDS011;53622;0.000;0.000;2023-07-29T08:18:41;5.95;;;4.05;;
66707;SDS011;53622;0.000;0.000;2023-07-29T08:21:11;7.75;;;4.05;;
66707;SDS011;53622;0.000;0.000;2023-07-29T08:23:40;4.10;;;3.63;;
66707;SDS011;53622;0.000;0.000;2023-07-29T08:26:11;9.75;;;3.90;;
66707;SDS011;53622;0.000;0.000;2023-07-29T08:28:40;7.00;;;4.00;;
66707;SDS011;53622;0.000;0.000;2023-07-29T08:31:09;6.97;;;4.18;;
66707;SDS011;53622;0.000;0.000;2023-07-29T08:33:39;6.75;;;3.65;;
66707;SDS011;53622;0.000;0.000;2023-07-29T08:36:09;7.63;;;3.90;;
66707;SDS011;53622;0.000;0.000;2023-07-29T08:38:38;8.98;;;4.05;;
66707;SDS011;53622;0.000;0.000;2023-07-29T08:41:10;13.63;;;3.88;;
66707;SDS011;53622;0.000;0.000;2023-07-29T08:43:43;13.93;;;4.45;;
66707;SDS011;53622;0.000;0.000;2023-07-29T08:46:18;12.75;;;4.57;;
66707;SDS011;53622;0.000;0.000;2023-07-29T08:48:48;12.05;;;4.47;;
66707;SDS011;53622;0.000;0.000;2023-07-29T08:51:19;9.85;;;3.95;;
66707;SDS011;53622;0.000;0.000;2023-07-29T08:53:50;12.65;;;4.10;;
66707;SDS011;53622;0.000;0.000;2023-07-29T08:56:21;8.23;;;4.15;;
66707;SDS011;53622;0.000;0.000;2023-07-29T08:58:50;11.07;;;4.50;;
66707;SDS011;53622;0.000;0.000;2023-07-29T09:01:21;14.15;;;4.47;;
66707;SDS011;53622;0.000;0.000;2023-07-29T09:03:50;10.35;;;4.07;;
66707;SDS011;53622;0.000;0.000;2023-07-29T09:06:19;11.90;;;4.55;;
66707;SDS011;53622;0.000;0.000;2023-07-29T09:08:50;11.93;;;4.13;;
66707;SDS011;53622;0.000;0.000;2023-07-29T09:11:22;11.60;;;4.35;;
66707;SDS011;53622;0.000;0.000;2023-07-29T09:13:52;11.68;;;4.10;;
66707;SDS011;53622;0.000;0.000;2023-07-29T09:16:22;10.07;;;3.80;;
66707;SDS011;53622;0.000;0.000;2023-07-29T09:18:51;11.75;;;4.35;;
66707;SDS011;53622;0.000;0.000;2023-07-29T09:21:22;11.27;;;4.32;;
66707;SDS011;53622;0.000;0.000;2023-07-29T09:23:54;10.90;;;4.57;;
66707;SDS011;53622;0.000;0.000;2023-07-29T09:26:25;13.35;;;4.22;;
66707;SDS011;53622;0.000;0.000;2023-07-29T09:28:55;8.35;;;4.70;;
66707;SDS011;53622;0.000;0.000;2023-07-29T09:31:27;8.93;;;4.53;;
66707;SDS011;53622;0.000;0.000;2023-07-29T09:33:58;5.65;;;3.78;;
66707;SDS011;53622;0.000;0.000;2023-07-29T09:36:29;6.72;;;4.68;;
66707;SDS011;53622;0.000;0.000;2023-07-29T09:39:00;7.43;;;4.20;;
66707;SDS011;53622;0.000;0.000;2023-07-29T09:41:32;13.93;;;6.80;;
66707;SDS011;53622;0.000;0.000;2023-07-29T09:44:02;15.45;;;7.57;;
66707;SDS011;53622;0.000;0.000;2023-07-29T09:46:33;17.17;;;9.00;;
66707;SDS011;53622;0.000;0.000;2023-07-29T09:49:15;20.42;;;7.50;;
66707;SDS011;53622;0.000;0.000;2023-07-29T09:51:47;23.50;;;9.15;;
66707;SDS011;53622;0.000;0.000;2023-07-29T09:54:16;14.20;;;7.93;;
66707;SDS011;53622;0.000;0.000;2023-07-29T09:56:48;17.05;;;8.38;;
66707;SDS011;53622;0.000;0.000;2023-07-29T09:59:18;14.55;;;6.95;;
66707;SDS011;53622;0.000;0.000;2023-07-29T10:01:48;15.40;;;7.22;;
66707;SDS011;53622;0.000;0.000;2023-07-29T10:04:18;15.43;;;7.10;;
66707;SDS011;53622;0.000;0.000;2023-07-29T10:06:48;14.20;;;6.85;;
66707;SDS011;53622;0.000;0.000;2023-07-29T10:09:24;12.65;;;7.07;;
66707;SDS011;53622;0.000;0.000;2023-07-29T10:12:15;12.00;;;6.32;;
66707;SDS011;53622;0.000;0.000;2023-07-29T10:14:49;16.70;;;6.30;;
66707;SDS011;53622;0.000;0.000;2023-07-29T10:17:19;18.38;;;6.30;;
66707;SDS011;53622;0.000;0.000;2023-07-29T10:19:51;16.98;;;6.35;;
66707;SDS011;53622;0.000;0.000;2023-07-29T10:22:21;17.90;;;7.18;;
66707;SDS011;53622;0.000;0.000;2023-07-29T10:24:54;13.00;;;6.03;;
66707;SDS011;53622;0.000;0.000;2023-07-29T10:27:28;15.95;;;6.03;;
66707;SDS011;53622;0.000;0.000;2023-07-29T10:29:58;13.55;;;5.97;;
66707;SDS011;53622;0.000;0.000;2023-07-29T10:32:28;16.48;;;6.63;;
66707;SDS011;53622;0.000;0.000;2023-07-29T10:35:00;19.02;;;6.57;;
66707;SDS011;53622;0.000;0.000;2023-07-29T10:37:30;18.23;;;6.43;;
66707;SDS011;53622;0.000;0.000;2023-07-29T10:39:59;15.70;;;6.13;;
66707;SDS011;53622;0.000;0.000;2023-07-29T10:42:30;13.70;;;5.85;;
66707;SDS011;53622;0.000;0.000;2023-07-29T10:45:00;12.18;;;5.68;;
66707;SDS011;53622;0.000;0.000;2023-07-29T10:47:45;13.38;;;5.85;;
66707;SDS011;53622;0.000;0.000;2023-07-29T10:50:18;9.43;;;5.63;;
66707;SDS011;53622;0.000;0.000;2023-07-29T10:52:49;11.13;;;5.40;;
66707;SDS011;53622;0.000;0.000;2023-07-29T10:55:24;12.02;;;5.60;;
66707;SDS011;53622;0.000;0.000;2023-07-29T10:58:05;7.70;;;4.90;;
66707;SDS011;53622;0.000;0.000;2023-07-29T11:00:36;11.02;;;5.15;;
66707;SDS011;53622;0.000;0.000;2023-07-29T11:03:07;11.15;;;5.05;;
66707;SDS011;53622;0.000;0.000;2023-07-29T11:05:44;9.68;;;5.10;;
66707;SDS011;53622;0.000;0.000;2023-07-29T11:08:16;11.50;;;5.50;;
66707;SDS011;53622;0.000;0.000;2023-07-29T11:13:36;6.97;;;4.72;;
66707;SDS011;53622;0.000;0.000;2023-07-29T11:16:09;8.73;;;4.97;;
66707;SDS011;53622;0.000;0.000;2023-07-29T11:18:45;8.95;;;4.90;;
66707;SDS011;53622;0.000;0.000;2023-07-29T11:21:16;7.78;;;4.88;;
66707;SDS011;53622;0.000;0.000;2023-07-29T11:23:46;7.40;;;5.30;;
66707;SDS011;53622;0.000;0.000;2023-07-29T11:26:15;7.70;;;4.85;;
66707;SDS011;53622;0.000;0.000;2023-07-29T11:28:46;6.95;;;5.10;;
66707;SDS011;53622;0.000;0.000;2023-07-29T11:31:15;8.38;;;4.70;;
66707;SDS011;53622;0.000;0.000;2023-07-29T11:33:47;7.97;;;4.60;;
66707;SDS011;53622;0.000;0.000;2023-07-29T11:36:17;6.57;;;4.97;;
66707;SDS011;53622;0.000;0.000;2023-07-29T11:38:47;6.53;;;4.70;;
66707;SDS011;53622;0.000;0.000;2023-07-29T11:41:19;6.15;;;5.13;;
66707;SDS011;53622;0.000;0.000;2023-07-29T11:43:51;6.10;;;4.63;;
66707;SDS011;53622;0.000;0.000;2023-07-29T11:46:21;6.68;;;4.70;;
66707;SDS011;53622;0.000;0.000;2023-07-29T11:48:53;6.10;;;4.68;;
66707;SDS011;53622;0.000;0.000;2023-07-29T11:51:22;6.85;;;5.05;;
66707;SDS011;53622;0.000;0.000;2023-07-29T11:53:54;9.65;;;5.03;;
66707;SDS011;53622;0.000;0.000;2023-07-29T11:56:23;5.55;;;4.90;;
66707;SDS011;53622;0.000;0.000;2023-07-29T11:58:54;5.05;;;4.38;;
66707;SDS011;53622;0.000;0.000;2023-07-29T12:01:24;5.00;;;4.50;;
66707;SDS011;53622;0.000;0.000;2023-07-29T12:03:53;5.40;;;4.90;;
66707;SDS011;53622;0.000;0.000;2023-07-29T12:06:24;6.78;;;4.97;;
66707;SDS011;53622;0.000;0.000;2023-07-29T12:08:55;5.00;;;4.57;;
66707;SDS011;53622;0.000;0.000;2023-07-29T12:11:24;8.35;;;4.50;;
66707;SDS011;53622;0.000;0.000;2023-07-29T12:13:56;7.25;;;5.43;;
66707;SDS011;53622;0.000;0.000;2023-07-29T12:16:39;5.85;;;4.72;;
66707;SDS011;53622;0.000;0.000;2023-07-29T12:19:11;8.52;;;4.90;;
66707;SDS011;53622;0.000;0.000;2023-07-29T12:21:41;19.40;;;5.00;;
66707;SDS011;53622;0.000;0.000;2023-07-29T12:24:12;5.53;;;4.93;;
66707;SDS011;53622;0.000;0.000;2023-07-29T12:26:41;5.97;;;4.72;;
66707;SDS011;53622;0.000;0.000;2023-07-29T12:29:16;6.53;;;4.55;;
66707;SDS011;53622;0.000;0.000;2023-07-29T12:31:47;6.28;;;4.75;;
66707;SDS011;53622;0.000;0.000;2023-07-29T12:34:17;6.75;;;4.72;;
66707;SDS011;53622;0.000;0.000;2023-07-29T12:36:48;6.13;;;4.47;;
66707;SDS011;53622;0.000;0.000;2023-07-29T12:39:19;6.38;;;4.28;;
66707;SDS011;53622;0.000;0.000;2023-07-29T12:41:51;5.25;;;4.70;;
66707;SDS011;53622;0.000;0.000;2023-07-29T12:44:24;7.63;;;4.72;;
66707;SDS011;53622;0.000;0.000;2023-07-29T12:46:56;6.97;;;4.13;;
66707;SDS011;53622;0.000;0.000;2023-07-29T12:49:26;5.95;;;4.57;;
66707;SDS011;53622;0.000;0.000;2023-07-29T12:51:57;4.60;;;4.20;;
66707;SDS011;53622;0.000;0.000;2023-07-29T12:54:26;4.97;;;4.47;;
66707;SDS011;53622;0.000;0.000;2023-07-29T12:56:56;5.57;;;4.60;;
66707;SDS011;53622;0.000;0.000;2023-07-29T12:59:27;6.00;;;4.45;;
66707;SDS011;53622;0.000;0.000;2023-07-29T13:01:56;5.15;;;4.13;;
66707;SDS011;53622;0.000;0.000;2023-07-29T13:04:26;4.70;;;4.30;;
66707;SDS011;53622;0.000;0.000;2023-07-29T13:06:55;4.75;;;4.15;;
66707;SDS011;53622;0.000;0.000;2023-07-29T13:09:26;5.57;;;4.88;;
66707;SDS011;53622;0.000;0.000;2023-07-29T13:11:56;5.25;;;4.40;;
66707;SDS011;53622;0.000;0.000;2023-07-29T13:14:26;5.15;;;4.10;;
66707;SDS011;53622;0.000;0.000;2023-07-29T13:16:56;5.70;;;4.25;;
66707;SDS011;53622;0.000;0.000;2023-07-29T13:19:26;5.22;;;4.40;;
66707;SDS011;53622;0.000;0.000;2023-07-29T13:21:56;4.72;;;4.07;;
66707;SDS011;53622;0.000;0.000;2023-07-29T13:24:25;4.40;;;4.00;;
66707;SDS011;53622;0.000;0.000;2023-07-29T13:26:55;7.25;;;4.25;;
66707;SDS011;53622;0.000;0.000;2023-07-29T13:29:25;5.53;;;4.00;;
66707;SDS011;53622;0.000;0.000;2023-07-29T13:31:55;4.70;;;4.20;;
66707;SDS011;53622;0.000;0.000;2023-07-29T13:34:26;4.63;;;3.90;;
66707;SDS011;53622;0.000;0.000;2023-07-29T13:36:55;4.70;;;4.18;;
66707;SDS011;53622;0.000;0.000;2023-07-29T13:39:24;5.72;;;4.07;;
66707;SDS011;53622;0.000;0.000;2023-07-29T13:41:54;3.95;;;3.55;;
66707;SDS011;53622;0.000;0.000;2023-07-29T13:44:27;4.63;;;3.90;;
66707;SDS011;53622;0.000;0.000;2023-07-29T13:46:56;4.00;;;3.63;;
66707;SDS011;53622;0.000;0.000;2023-07-29T13:49:27;4.18;;;3.78;;
66707;SDS011;53622;0.000;0.000;2023-07-29T13:51:56;4.72;;;3.85;;
66707;SDS011;53622;0.000;0.000;2023-07-29T13:54:26;4.55;;;3.90;;
66707;SDS011;53622;0.000;0.000;2023-07-29T13:56:56;3.55;;;3.22;;
66707;SDS011;53622;0.000;0.000;2023-07-29T13:59:27;4.95;;;3.78;;
66707;SDS011;53622;0.000;0.000;2023-07-29T14:01:58;4.47;;;3.90;;
66707;SDS011;53622;0.000;0.000;2023-07-29T14:04:27;4.68;;;3.70;;
66707;SDS011;53622;0.000;0.000;2023-07-29T14:06:57;3.95;;;3.65;;
66707;SDS011;53622;0.000;0.000;2023-07-29T14:09:26;4.45;;;3.90;;
66707;SDS011;53622;0.000;0.000;2023-07-29T14:11:56;4.07;;;3.75;;
66707;SDS011;53622;0.000;0.000;2023-07-29T14:14:25;3.75;;;3.42;;
66707;SDS011;53622;0.000;0.000;2023-07-29T14:16:56;4.20;;;3.80;;
66707;SDS011;53622;0.000;0.000;2023-07-29T14:19:25;4.85;;;3.80;;
66707;SDS011;53622;0.000;0.000;2023-07-29T14:21:55;4.97;;;3.53;;
66707;SDS011;53622;0.000;0.000;2023-07-29T14:24:24;4.00;;;3.53;;
66707;SDS011;53622;0.000;0.000;2023-07-29T14:26:53;4.97;;;3.95;;
66707;SDS011;53622;0.000;0.000;2023-07-29T14:29:23;3.70;;;3.35;;
66707;SDS011;53622;0.000;0.000;2023-07-29T14:31:53;4.28;;;3.50;;
66707;SDS011;53622;0.000;0.000;2023-07-29T14:34:23;5.00;;;3.90;;
66707;SDS011;53622;0.000;0.000;2023-07-29T14:36:52;4.60;;;4.10;;
66707;SDS011;53622;0.000;0.000;2023-07-29T14:39:21;3.88;;;3.58;;
66707;SDS011;53622;0.000;0.000;2023-07-29T14:41:51;4.25;;;3.67;;
66707;SDS011;53622;0.000;0.000;2023-07-29T14:44:20;4.95;;;3.38;;
66707;SDS011;53622;0.000;0.000;2023-07-29T14:46:49;6.03;;;4.00;;
66707;SDS011;53622;0.000;0.000;2023-07-29T14:49:20;4.43;;;3.50;;
66707;SDS011;53622;0.000;0.000;2023-07-29T14:51:50;4.85;;;3.53;;
66707;SDS011;53622;0.000;0.000;2023-07-29T14:54:19;4.95;;;3.83;;
66707;SDS011;53622;0.000;0.000;2023-07-29T14:56:48;4.65;;;3.60;;
66707;SDS011;53622;0.000;0.000;2023-07-29T14:59:17;5.35;;;3.72;;
66707;SDS011;53622;0.000;0.000;2023-07-29T15:01:47;4.43;;;3.70;;
66707;SDS011;53622;0.000;0.000;2023-07-29T15:04:16;6.18;;;4.00;;
66707;SDS011;53622;0.000;0.000;2023-07-29T15:06:48;7.35;;;4.07;;
66707;SDS011;53622;0.000;0.000;2023-07-29T15:09:17;6.75;;;3.95;;
66707;SDS011;53622;0.000;0.000;2023-07-29T15:11:46;7.25;;;3.80;;
66707;SDS011;53622;0.000;0.000;2023-07-29T15:14:16;4.22;;;3.83;;
66707;SDS011;53622;0.000;0.000;2023-07-29T15:16:46;5.93;;;3.60;;
66707;SDS011;53622;0.000;0.000;2023-07-29T15:19:15;4.93;;;3.80;;
66707;SDS011;53622;0.000;0.000;2023-07-29T15:21:45;4.78;;;3.58;;